createdAt,value
2023-02-06T00:00:43.819Z,18.27
2023-02-06T00:03:45.965Z,17.03
2023-02-06T00:06:48.333Z,16.59
2023-02-06T00:09:50.240Z,17.60
2023-02-06T00:12:52.463Z,18.16
2023-02-06T00:15:54.823Z,17.10
2023-02-06T00:18:58.247Z,16.89
2023-02-06T00:22:00.249Z,17.88
2023-02-06T00:25:02.601Z,17.97
2023-02-06T00:28:05.262Z,16.84
2023-02-06T00:31:08.807Z,16.42
2023-02-06T00:34:10.871Z,17.66
2023-02-06T00:37:15.113Z,17.97
2023-02-06T00:40:18.169Z,16.88
2023-02-06T00:43:20.699Z,16.46
2023-02-06T00:46:23.033Z,17.47
2023-02-06T00:49:25.554Z,17.94
2023-02-06T00:52:27.988Z,16.63
2023-02-06T00:55:31.200Z,16.37
2023-02-06T00:58:33.297Z,17.72
2023-02-06T01:01:35.510Z,18.03
2023-02-06T01:04:37.709Z,16.78
2023-02-06T01:07:42.669Z,16.25
2023-02-06T01:10:45.989Z,17.54
2023-02-06T01:13:48.116Z,18.09
2023-02-06T01:16:51.546Z,16.97
2023-02-06T01:19:54.222Z,16.35
2023-02-06T01:22:56.249Z,17.45
2023-02-06T01:25:58.282Z,17.98
2023-02-06T01:29:02.167Z,16.21
2023-02-06T01:32:04.335Z,15.86
2023-02-06T01:35:08.505Z,17.26
2023-02-06T01:38:10.582Z,17.82
2023-02-06T01:41:13.604Z,16.44
2023-02-06T01:44:23.427Z,15.88
2023-02-06T01:47:25.577Z,17.44
2023-02-06T01:50:33.426Z,17.74
2023-02-06T01:53:36.236Z,16.36
2023-02-06T01:56:55.321Z,16.14
2023-02-06T02:00:01.764Z,17.33
2023-02-06T02:03:13.945Z,17.90
2023-02-06T02:06:20.987Z,16.55
2023-02-06T02:09:23.872Z,16.48
2023-02-06T02:12:26.342Z,17.55
2023-02-06T02:15:41.871Z,17.88
2023-02-06T02:19:13.989Z,16.21
2023-02-06T02:22:40.066Z,17.07
2023-02-06T02:25:47.722Z,17.67
2023-02-06T02:29:08.580Z,16.77
2023-02-06T02:32:28.536Z,15.93
2023-02-06T02:35:38.036Z,17.01
2023-02-06T02:38:54.551Z,17.61
2023-02-06T02:41:58.542Z,16.27
2023-02-06T02:45:12.366Z,16.04
2023-02-06T02:48:18.944Z,17.47
2023-02-06T02:51:23.818Z,17.98
2023-02-06T02:54:26.613Z,16.30
2023-02-06T02:57:31.938Z,16.30
2023-02-06T03:00:43.493Z,17.08
2023-02-06T03:03:48.522Z,17.74
2023-02-06T03:07:09.011Z,16.22
2023-02-06T03:10:30.357Z,16.46
2023-02-06T03:13:39.475Z,17.71
2023-02-06T03:16:59.676Z,17.42
2023-02-06T03:20:04.796Z,15.89
2023-02-06T03:23:08.836Z,16.47
2023-02-06T03:26:15.853Z,17.48
2023-02-06T03:29:19.330Z,16.66
2023-02-06T03:32:34.633Z,15.46
2023-02-06T03:35:38.653Z,16.41
2023-02-06T03:38:40.949Z,17.19
2023-02-06T03:41:44.545Z,16.53
2023-02-06T03:44:54.337Z,15.54
2023-02-06T03:48:00.918Z,16.43
2023-02-06T03:51:09.593Z,17.29
2023-02-06T03:54:14.418Z,16.46
2023-02-06T03:57:19.533Z,15.62
2023-02-06T04:00:21.959Z,16.29
2023-02-06T04:03:24.640Z,17.26
2023-02-06T04:06:26.694Z,16.38
2023-02-06T04:09:28.871Z,16.07
2023-02-06T04:12:31.568Z,17.00
2023-02-06T04:15:33.898Z,17.07
2023-02-06T04:18:35.988Z,15.79
2023-02-06T04:21:38.207Z,15.46
2023-02-06T04:24:41.580Z,16.87
2023-02-06T04:27:43.683Z,17.36
2023-02-06T04:30:48.905Z,16.11
2023-02-06T04:33:51.501Z,15.53
2023-02-06T04:36:53.504Z,16.62
2023-02-06T04:39:55.663Z,17.15
2023-02-06T04:42:57.813Z,16.02
2023-02-06T04:46:00.391Z,15.51
2023-02-06T04:49:02.421Z,17.01
2023-02-06T04:52:04.634Z,17.41
2023-02-06T04:55:07.119Z,16.26
2023-02-06T04:58:09.580Z,15.67
2023-02-06T05:01:11.759Z,16.09
2023-02-06T05:04:13.787Z,17.11
2023-02-06T05:07:15.903Z,15.82
2023-02-06T05:10:18.063Z,15.14
2023-02-06T05:13:20.332Z,15.91
2023-02-06T05:16:22.736Z,17.30
2023-02-06T05:19:24.937Z,16.09
2023-02-06T05:22:27.188Z,15.68
2023-02-06T05:25:30.002Z,16.51
2023-02-06T05:28:33.664Z,17.38
2023-02-06T05:31:36.443Z,16.30
2023-02-06T05:34:38.631Z,15.70
2023-02-06T05:37:40.900Z,16.60
2023-02-06T05:40:42.993Z,17.35
2023-02-06T05:43:45.109Z,16.12
2023-02-06T05:46:48.632Z,15.72
2023-02-06T05:49:50.621Z,16.89
2023-02-06T05:52:52.745Z,17.09
2023-02-06T05:55:54.951Z,15.96
2023-02-06T05:58:57.079Z,15.54
2023-02-06T06:01:59.193Z,15.85
2023-02-06T06:05:01.388Z,16.78
2023-02-06T06:08:03.657Z,15.86
2023-02-06T06:11:05.917Z,15.65
2023-02-06T06:14:08.110Z,16.04
2023-02-06T06:17:10.186Z,16.33
2023-02-06T06:20:12.315Z,16.23
2023-02-06T06:23:14.700Z,16.10
2023-02-06T06:26:16.938Z,16.24
2023-02-06T06:29:19.079Z,16.91
2023-02-06T06:32:21.065Z,16.47
2023-02-06T06:35:23.109Z,16.16
2023-02-06T06:38:25.441Z,16.12
2023-02-06T06:41:27.560Z,16.69
2023-02-06T06:44:29.644Z,16.02
2023-02-06T06:47:31.758Z,15.73
2023-02-06T06:50:33.903Z,15.65
2023-02-06T06:53:40.205Z,15.61
2023-02-06T06:56:42.606Z,15.45
2023-02-06T06:59:44.927Z,15.93
2023-02-06T07:02:47.513Z,15.99
2023-02-06T07:05:55.299Z,15.71
2023-02-06T07:08:57.523Z,15.73
2023-02-06T07:12:01.999Z,15.97
2023-02-06T07:15:05.095Z,16.10
2023-02-06T07:18:07.097Z,16.40
2023-02-06T07:21:10.570Z,15.59
2023-02-06T07:24:12.618Z,15.85
2023-02-06T07:27:15.003Z,16.27
2023-02-06T07:30:17.475Z,16.61
2023-02-06T07:33:19.572Z,16.24
2023-02-06T07:36:21.656Z,15.82
2023-02-06T07:39:23.764Z,16.50
2023-02-06T07:42:25.869Z,16.50
2023-02-06T07:45:33.281Z,16.13
2023-02-06T07:48:35.361Z,16.16
2023-02-06T07:51:37.604Z,16.49
2023-02-06T07:54:39.658Z,16.94
2023-02-06T07:57:42.771Z,16.34
2023-02-06T08:00:45.976Z,16.41
2023-02-06T08:03:52.143Z,16.94
2023-02-06T08:06:54.123Z,17.42
2023-02-06T08:09:56.159Z,16.47
2023-02-06T08:12:58.130Z,16.18
2023-02-06T08:16:07.201Z,16.70
2023-02-06T08:19:11.140Z,17.48
2023-02-06T08:22:13.196Z,16.22
2023-02-06T08:25:15.537Z,16.19
2023-02-06T08:28:17.817Z,16.64
2023-02-06T08:31:25.872Z,17.16
2023-02-06T08:34:28.436Z,16.04
2023-02-06T08:37:32.026Z,16.11
2023-02-06T08:40:34.217Z,16.35
2023-02-06T08:43:36.226Z,17.01
2023-02-06T08:46:40.246Z,16.22
2023-02-06T08:49:42.266Z,16.11
2023-02-06T08:52:44.352Z,16.67
2023-02-06T08:55:46.483Z,17.04
2023-02-06T08:58:48.598Z,16.65
2023-02-06T09:01:52.269Z,16.18
2023-02-06T09:04:54.536Z,17.09
2023-02-06T09:07:56.770Z,17.80
2023-02-06T09:11:06.865Z,16.50
2023-02-06T09:14:13.077Z,16.52
2023-02-06T09:17:15.182Z,17.19
2023-02-06T09:20:17.500Z,17.39
2023-02-06T09:23:19.916Z,16.61
2023-02-06T09:26:27.654Z,17.87
2023-02-06T09:29:34.062Z,17.82
2023-02-06T09:32:38.070Z,18.12
2023-02-06T09:35:40.075Z,18.05
2023-02-06T09:38:46.625Z,18.76
2023-02-06T09:41:54.630Z,19.13
2023-02-06T09:45:28.352Z,22.09
2023-02-06T09:48:35.091Z,24.09
2023-02-06T09:51:55.331Z,24.57
2023-02-06T09:55:16.389Z,24.58
2023-02-06T09:59:09.536Z,21.47
2023-02-06T10:02:17.242Z,19.19
2023-02-06T10:05:25.074Z,18.59
2023-02-06T10:08:39.243Z,19.04
2023-02-06T10:11:54.912Z,18.56
2023-02-06T10:15:11.340Z,18.50
2023-02-06T10:18:43.988Z,18.92
2023-02-06T10:21:55.596Z,18.16
2023-02-06T10:25:13.540Z,18.00
2023-02-06T10:28:20.921Z,18.32
2023-02-06T10:31:26.131Z,18.70
2023-02-06T10:34:40.337Z,17.84
2023-02-06T10:37:57.208Z,17.89
2023-02-06T10:41:10.143Z,17.27
2023-02-06T10:44:28.189Z,17.22
2023-02-06T10:47:41.499Z,17.59
2023-02-06T10:50:59.968Z,17.90
2023-02-06T10:54:04.933Z,17.37
2023-02-06T10:57:17.558Z,16.66
2023-02-06T11:00:28.239Z,16.58
2023-02-06T11:03:32.332Z,17.13
2023-02-06T11:06:34.681Z,17.88
2023-02-06T11:09:37.007Z,17.36
2023-02-06T11:12:44.540Z,17.78
2023-02-06T11:16:02.410Z,18.64
2023-02-06T11:19:32.422Z,18.30
2023-02-06T11:22:41.599Z,17.55
2023-02-06T11:26:20.158Z,18.35
2023-02-06T11:29:26.699Z,17.87
2023-02-06T11:32:43.920Z,18.10
2023-02-06T11:36:00.040Z,18.35
2023-02-06T11:39:07.054Z,17.95
2023-02-06T11:42:22.380Z,17.70
2023-02-06T11:45:32.079Z,20.04
2023-02-06T11:48:40.522Z,24.83
2023-02-06T11:51:54.519Z,27.20
2023-02-06T11:55:01.878Z,23.87
2023-02-06T11:58:13.024Z,20.63
2023-02-06T12:01:21.302Z,19.33
2023-02-06T12:04:39.064Z,18.91
2023-02-06T12:07:43.587Z,18.20
2023-02-06T12:11:03.176Z,18.22
2023-02-06T12:14:11.480Z,18.46
2023-02-06T12:17:40.034Z,18.05
2023-02-06T12:21:05.662Z,17.76
2023-02-06T12:24:28.869Z,18.73
2023-02-06T12:27:39.024Z,18.03
2023-02-06T12:31:01.110Z,17.77
2023-02-06T12:34:14.889Z,18.52
2023-02-06T12:37:46.808Z,18.55
2023-02-06T12:41:00.343Z,18.09
2023-02-06T12:44:44.312Z,18.50
2023-02-06T12:47:54.785Z,18.38
2023-02-06T12:51:10.876Z,18.24
2023-02-06T12:54:19.884Z,18.51
2023-02-06T12:57:23.791Z,18.78
2023-02-06T13:00:46.475Z,18.08
2023-02-06T13:03:56.527Z,18.11
2023-02-06T13:07:07.339Z,18.71
2023-02-06T13:10:21.825Z,18.13
2023-02-06T13:13:26.470Z,17.79
2023-02-06T13:16:49.156Z,18.63
2023-02-06T13:20:19.493Z,18.39
2023-02-06T13:23:37.066Z,18.08
2023-02-06T13:31:31.747Z,18.32
2023-02-06T13:34:53.068Z,18.64
2023-02-06T13:38:48.404Z,18.44
2023-02-06T13:42:50.287Z,18.45
2023-02-06T13:45:57.798Z,18.09
2023-02-06T13:49:14.973Z,18.66
2023-02-06T13:52:24.669Z,18.65
2023-02-06T13:55:44.058Z,18.27
2023-02-06T13:58:52.672Z,18.16
2023-02-06T14:01:56.008Z,18.75
2023-02-06T14:04:59.057Z,18.67
2023-02-06T14:08:23.244Z,18.84
2023-02-06T14:12:03.278Z,18.85
2023-02-06T14:15:20.524Z,18.74
2023-02-06T14:18:22.515Z,18.57
2023-02-06T14:21:39.521Z,19.25
2023-02-06T14:25:04.275Z,19.38
2023-02-06T14:28:08.952Z,18.73
2023-02-06T14:31:48.879Z,18.77
2023-02-06T14:35:16.825Z,18.82
2023-02-06T14:38:33.630Z,19.12
2023-02-06T14:41:39.603Z,18.91
2023-02-06T14:44:43.423Z,18.60
2023-02-06T14:47:46.772Z,18.76
2023-02-06T14:50:56.670Z,19.42
2023-02-06T14:54:07.663Z,19.53
2023-02-06T14:57:35.890Z,19.35
2023-02-06T15:00:38.210Z,19.57
2023-02-06T15:03:41.989Z,19.35
2023-02-06T15:07:05.083Z,19.42
2023-02-06T15:10:11.980Z,19.52
2023-02-06T15:13:25.319Z,19.77
2023-02-06T15:16:44.670Z,19.40
2023-02-06T15:19:47.043Z,19.70
2023-02-06T15:22:49.740Z,19.55
2023-02-06T15:26:04.420Z,19.43
2023-02-06T15:29:19.792Z,19.10
2023-02-06T15:32:24.434Z,19.10
2023-02-06T15:35:39.127Z,19.15
2023-02-06T15:38:43.356Z,19.53
2023-02-06T15:41:48.242Z,19.32
2023-02-06T15:44:51.222Z,19.26
2023-02-06T15:47:55.106Z,19.36
2023-02-06T15:51:02.034Z,19.25
2023-02-06T15:54:15.998Z,19.31
2023-02-06T15:57:29.550Z,19.28
2023-02-06T16:00:34.997Z,19.60
2023-02-06T16:03:41.782Z,19.02
2023-02-06T16:06:45.769Z,19.32
2023-02-06T16:09:53.781Z,18.85
2023-02-06T16:13:00.192Z,20.82
2023-02-06T16:16:28.326Z,23.06
2023-02-06T16:19:48.558Z,23.97
2023-02-06T16:22:54.070Z,24.57
2023-02-06T16:26:12.974Z,24.74
2023-02-06T16:29:21.144Z,25.27
2023-02-06T16:32:30.081Z,23.83
2023-02-06T16:35:32.318Z,21.29
2023-02-06T16:38:34.473Z,19.95
2023-02-06T16:41:39.117Z,19.43
2023-02-06T16:44:45.371Z,19.34
2023-02-06T16:47:48.559Z,19.38
2023-02-06T16:50:50.626Z,19.83
2023-02-06T16:53:53.309Z,19.71
2023-02-06T16:57:00.533Z,20.04
2023-02-06T17:00:05.729Z,20.16
2023-02-06T17:03:07.875Z,20.17
2023-02-06T17:06:18.021Z,19.80
2023-02-06T17:09:20.142Z,19.53
2023-02-06T17:12:23.072Z,18.92
2023-02-06T17:15:25.286Z,19.76
2023-02-06T17:18:28.752Z,19.20
2023-02-06T17:21:33.314Z,19.35
2023-02-06T17:24:36.465Z,19.29
2023-02-06T17:27:40.345Z,19.75
2023-02-06T17:30:43.165Z,19.49
2023-02-06T17:33:46.010Z,19.36
2023-02-06T17:36:55.948Z,19.48
2023-02-06T17:40:10.325Z,18.82
2023-02-06T17:43:16.239Z,19.05
2023-02-06T17:46:18.451Z,19.38
2023-02-06T17:49:31.019Z,19.21
2023-02-06T17:52:33.256Z,19.57
2023-02-06T17:55:44.083Z,19.01
2023-02-06T17:58:46.206Z,19.18
2023-02-06T18:01:48.328Z,19.26
2023-02-06T18:04:53.043Z,18.85
2023-02-06T18:07:55.280Z,19.30
2023-02-06T18:10:58.848Z,19.17
2023-02-06T18:14:00.990Z,19.30
2023-02-06T18:17:03.961Z,19.61
2023-02-06T18:20:07.262Z,19.13
2023-02-06T18:23:09.617Z,19.13
2023-02-06T18:26:12.089Z,19.17
2023-02-06T18:29:21.430Z,18.77
2023-02-06T18:32:25.429Z,19.10
2023-02-06T18:35:28.400Z,19.26
2023-02-06T18:38:37.219Z,19.12
2023-02-06T18:41:57.992Z,18.97
2023-02-06T18:45:04.184Z,19.07
2023-02-06T18:48:10.421Z,19.11
2023-02-06T18:51:12.479Z,18.54
2023-02-06T18:54:15.781Z,18.42
2023-02-06T18:57:17.972Z,19.55
2023-02-06T19:00:22.373Z,18.85
2023-02-06T19:03:31.996Z,18.69
2023-02-06T19:06:39.425Z,19.46
2023-02-06T19:09:45.562Z,18.65
2023-02-06T19:12:47.818Z,19.23
2023-02-06T19:15:50.496Z,18.52
2023-02-06T19:18:52.804Z,18.56
2023-02-06T19:21:56.446Z,18.86
2023-02-06T19:24:58.608Z,18.49
2023-02-06T19:28:05.195Z,18.43
2023-02-06T19:31:08.949Z,17.51
2023-02-06T19:34:11.428Z,16.85
2023-02-06T19:37:14.118Z,16.34
2023-02-06T19:40:16.685Z,16.71
2023-02-06T19:43:18.911Z,17.99
2023-02-06T19:46:23.794Z,17.65
2023-02-06T19:49:27.107Z,17.56
2023-02-06T19:52:29.236Z,18.58
2023-02-06T19:55:31.816Z,18.72
2023-02-06T19:58:34.402Z,18.82
2023-02-06T20:01:36.642Z,18.49
2023-02-06T20:04:40.204Z,18.75
2023-02-06T20:07:49.726Z,18.59
2023-02-06T20:10:55.685Z,18.51
2023-02-06T20:14:01.107Z,18.37
2023-02-06T20:17:05.194Z,18.30
2023-02-06T20:20:11.615Z,18.40
2023-02-06T20:23:13.611Z,18.23
2023-02-06T20:26:20.025Z,18.09
2023-02-06T20:29:26.771Z,18.20
2023-02-06T20:32:30.056Z,17.83
2023-02-06T20:35:32.601Z,17.71
2023-02-06T20:38:34.850Z,18.40
2023-02-06T20:41:39.367Z,18.27
2023-02-06T20:44:44.166Z,18.43
2023-02-06T20:47:49.535Z,17.77
2023-02-06T20:51:03.602Z,18.41
2023-02-06T20:54:06.759Z,18.59
2023-02-06T20:57:11.294Z,18.05
2023-02-06T21:00:14.906Z,18.62
2023-02-06T21:03:20.259Z,18.61
2023-02-06T21:06:26.889Z,18.76
2023-02-06T21:09:29.205Z,18.06
2023-02-06T21:12:32.397Z,18.42
2023-02-06T21:15:34.640Z,18.38
2023-02-06T21:18:37.969Z,18.56
2023-02-06T21:21:41.050Z,17.84
2023-02-06T21:24:47.336Z,18.36
2023-02-06T21:27:49.989Z,17.90
2023-02-06T21:31:00.249Z,16.54
2023-02-06T21:34:18.257Z,17.30
2023-02-06T21:37:23.131Z,17.43
2023-02-06T21:40:27.804Z,17.77
2023-02-06T21:43:29.882Z,18.57
2023-02-06T21:46:32.508Z,17.70
2023-02-06T21:49:34.918Z,18.24
2023-02-06T21:52:39.081Z,18.29
2023-02-06T21:55:43.292Z,17.55
2023-02-06T21:58:45.881Z,17.82
2023-02-06T22:01:48.038Z,18.32
2023-02-06T22:04:50.200Z,18.41
2023-02-06T22:07:54.314Z,18.67
2023-02-06T22:10:56.332Z,18.56
2023-02-06T22:14:06.395Z,18.33
2023-02-06T22:17:08.783Z,18.11
2023-02-06T22:20:11.423Z,17.88
2023-02-06T22:23:13.796Z,18.32
2023-02-06T22:26:18.612Z,18.16
2023-02-06T22:29:21.810Z,17.68
2023-02-06T22:32:24.188Z,18.20
2023-02-06T22:35:26.878Z,18.35
2023-02-06T22:38:28.977Z,18.06
2023-02-06T22:41:31.429Z,18.08
2023-02-06T22:44:33.919Z,18.19
2023-02-06T22:47:36.448Z,18.41
2023-02-06T22:50:39.697Z,18.33
2023-02-06T22:53:42.506Z,17.90
2023-02-06T22:56:45.589Z,18.18
2023-02-06T22:59:47.810Z,17.81
2023-02-06T23:02:50.316Z,17.92
2023-02-06T23:05:52.626Z,17.64
2023-02-06T23:08:57.332Z,17.99
2023-02-06T23:12:07.343Z,17.71
2023-02-06T23:15:12.216Z,17.29
2023-02-06T23:18:14.478Z,17.90
2023-02-06T23:21:19.464Z,18.12
2023-02-06T23:24:21.934Z,17.75
2023-02-06T23:27:25.799Z,17.84
2023-02-06T23:30:31.146Z,17.94
2023-02-06T23:33:35.731Z,17.65
2023-02-06T23:36:38.208Z,17.81
2023-02-06T23:39:42.781Z,18.03
2023-02-06T23:42:45.536Z,18.02
2023-02-06T23:45:48.312Z,17.64
2023-02-06T23:48:51.606Z,17.66
2023-02-06T23:51:53.743Z,18.15
2023-02-06T23:54:57.189Z,17.85
2023-02-06T23:57:59.375Z,17.45
